sensor_id;sensor_type;location;lat;lon;timestamp;P1;durP1;ratioP1;P2;durP2;ratioP2
16973;SDS011;8603;46.944;7.412;2023-12-14T00:01:32;1.53;;;1.43;;
16973;SDS011;8603;46.944;7.412;2023-12-14T00:03:58;1.30;;;1.20;;
16973;SDS011;8603;46.944;7.412;2023-12-14T00:06:24;1.27;;;1.10;;
16973;SDS011;8603;46.944;7.412;2023-12-14T00:08:49;1.47;;;1.30;;
16973;SDS011;8603;46.944;7.412;2023-12-14T00:11:15;1.57;;;1.40;;
16973;SDS011;8603;46.944;7.412;2023-12-14T00:13:40;1.77;;;0.90;;
16973;SDS011;8603;46.944;7.412;2023-12-14T00:16:06;0.90;;;0.90;;
16973;SDS011;8603;46.944;7.412;2023-12-14T00:18:33;0.90;;;0.90;;
16973;SDS011;8603;46.944;7.412;2023-12-14T00:20:58;1.50;;;1.10;;
16973;SDS011;8603;46.944;7.412;2023-12-14T00:23:24;1.00;;;1.00;;
16973;SDS011;8603;46.944;7.412;2023-12-14T00:25:54;1.07;;;1.07;;
16973;SDS011;8603;46.944;7.412;2023-12-14T00:28:20;1.17;;;1.00;;
16973;SDS011;8603;46.944;7.412;2023-12-14T00:30:45;1.87;;;1.00;;
16973;SDS011;8603;46.944;7.412;2023-12-14T00:33:14;1.13;;;0.97;;
16973;SDS011;8603;46.944;7.412;2023-12-14T00:35:39;2.00;;;1.10;;
16973;SDS011;8603;46.944;7.412;2023-12-14T00:38:05;0.80;;;0.80;;
16973;SDS011;8603;46.944;7.412;2023-12-14T00:40:30;1.07;;;1.03;;
16973;SDS011;8603;46.944;7.412;2023-12-14T00:42:56;0.80;;;0.80;;
16973;SDS011;8603;46.944;7.412;2023-12-14T00:45:25;1.50;;;1.10;;
16973;SDS011;8603;46.944;7.412;2023-12-14T00:47:50;1.73;;;0.80;;
16973;SDS011;8603;46.944;7.412;2023-12-14T00:50:16;0.80;;;0.80;;
16973;SDS011;8603;46.944;7.412;2023-12-14T00:52:41;0.90;;;0.90;;
16973;SDS011;8603;46.944;7.412;2023-12-14T00:55:07;1.00;;;0.70;;
16973;SDS011;8603;46.944;7.412;2023-12-14T00:57:33;1.23;;;0.77;;
16973;SDS011;8603;46.944;7.412;2023-12-14T00:59:59;0.90;;;0.90;;
16973;SDS011;8603;46.944;7.412;2023-12-14T01:02:25;0.70;;;0.70;;
16973;SDS011;8603;46.944;7.412;2023-12-14T01:04:50;1.27;;;0.80;;
16973;SDS011;8603;46.944;7.412;2023-12-14T01:07:18;1.00;;;1.00;;
16973;SDS011;8603;46.944;7.412;2023-12-14T01:09:43;1.43;;;0.90;;
16973;SDS011;8603;46.944;7.412;2023-12-14T01:12:09;2.13;;;1.10;;
16973;SDS011;8603;46.944;7.412;2023-12-14T01:14:34;0.93;;;0.93;;
16973;SDS011;8603;46.944;7.412;2023-12-14T01:17:00;0.80;;;0.80;;
16973;SDS011;8603;46.944;7.412;2023-12-14T01:19:25;0.90;;;0.90;;
16973;SDS011;8603;46.944;7.412;2023-12-14T01:21:51;1.60;;;1.00;;
16973;SDS011;8603;46.944;7.412;2023-12-14T01:24:17;0.90;;;0.90;;
16973;SDS011;8603;46.944;7.412;2023-12-14T01:26:43;0.80;;;0.80;;
16973;SDS011;8603;46.944;7.412;2023-12-14T01:29:08;0.70;;;0.70;;
16973;SDS011;8603;46.944;7.412;2023-12-14T01:31:34;1.00;;;0.83;;
16973;SDS011;8603;46.944;7.412;2023-12-14T01:33:59;0.80;;;0.80;;
16973;SDS011;8603;46.944;7.412;2023-12-14T01:36:25;1.90;;;0.70;;
16973;SDS011;8603;46.944;7.412;2023-12-14T01:38:51;0.93;;;0.90;;
16973;SDS011;8603;46.944;7.412;2023-12-14T01:41:17;1.03;;;0.83;;
16973;SDS011;8603;46.944;7.412;2023-12-14T01:43:43;0.87;;;0.87;;
16973;SDS011;8603;46.944;7.412;2023-12-14T01:46:09;1.67;;;1.00;;
16973;SDS011;8603;46.944;7.412;2023-12-14T01:48:35;1.37;;;0.80;;
16973;SDS011;8603;46.944;7.412;2023-12-14T01:51:01;0.70;;;0.70;;
16973;SDS011;8603;46.944;7.412;2023-12-14T01:53:26;0.70;;;0.70;;
16973;SDS011;8603;46.944;7.412;2023-12-14T01:55:52;0.80;;;0.80;;
16973;SDS011;8603;46.944;7.412;2023-12-14T01:58:20;0.60;;;0.60;;
16973;SDS011;8603;46.944;7.412;2023-12-14T02:00:51;0.73;;;0.73;;
16973;SDS011;8603;46.944;7.412;2023-12-14T02:03:29;0.70;;;0.70;;
16973;SDS011;8603;46.944;7.412;2023-12-14T02:05:54;0.80;;;0.80;;
16973;SDS011;8603;46.944;7.412;2023-12-14T02:08:20;1.60;;;0.67;;
16973;SDS011;8603;46.944;7.412;2023-12-14T02:10:46;1.00;;;1.00;;
16973;SDS011;8603;46.944;7.412;2023-12-14T02:13:13;1.73;;;1.30;;
16973;SDS011;8603;46.944;7.412;2023-12-14T02:15:38;1.97;;;1.50;;
16973;SDS011;8603;46.944;7.412;2023-12-14T02:18:04;2.10;;;1.40;;
16973;SDS011;8603;46.944;7.412;2023-12-14T02:20:29;1.73;;;1.60;;
16973;SDS011;8603;46.944;7.412;2023-12-14T02:22:55;1.67;;;1.57;;
16973;SDS011;8603;46.944;7.412;2023-12-14T02:25:21;1.63;;;1.53;;
16973;SDS011;8603;46.944;7.412;2023-12-14T02:27:48;1.80;;;1.50;;
16973;SDS011;8603;46.944;7.412;2023-12-14T02:30:15;1.47;;;1.37;;
16973;SDS011;8603;46.944;7.412;2023-12-14T02:32:41;1.33;;;1.23;;
16973;SDS011;8603;46.944;7.412;2023-12-14T02:35:07;2.23;;;1.40;;
16973;SDS011;8603;46.944;7.412;2023-12-14T02:37:59;1.53;;;1.10;;
16973;SDS011;8603;46.944;7.412;2023-12-14T02:40:24;1.60;;;1.20;;
16973;SDS011;8603;46.944;7.412;2023-12-14T02:42:50;0.80;;;0.80;;
16973;SDS011;8603;46.944;7.412;2023-12-14T02:45:16;1.10;;;1.10;;
16973;SDS011;8603;46.944;7.412;2023-12-14T02:47:42;0.90;;;0.90;;
16973;SDS011;8603;46.944;7.412;2023-12-14T02:50:07;0.90;;;0.90;;
16973;SDS011;8603;46.944;7.412;2023-12-14T02:52:33;1.37;;;0.90;;
16973;SDS011;8603;46.944;7.412;2023-12-14T02:54:58;1.10;;;1.00;;
16973;SDS011;8603;46.944;7.412;2023-12-14T02:57:24;1.00;;;1.00;;
16973;SDS011;8603;46.944;7.412;2023-12-14T02:59:50;1.00;;;1.00;;
16973;SDS011;8603;46.944;7.412;2023-12-14T03:02:16;0.90;;;0.90;;
16973;SDS011;8603;46.944;7.412;2023-12-14T03:04:41;0.70;;;0.70;;
16973;SDS011;8603;46.944;7.412;2023-12-14T03:07:07;0.87;;;0.83;;
16973;SDS011;8603;46.944;7.412;2023-12-14T03:09:33;0.80;;;0.80;;
16973;SDS011;8603;46.944;7.412;2023-12-14T03:11:59;1.13;;;0.80;;
16973;SDS011;8603;46.944;7.412;2023-12-14T03:14:25;0.63;;;0.63;;
16973;SDS011;8603;46.944;7.412;2023-12-14T03:16:50;0.90;;;0.90;;
16973;SDS011;8603;46.944;7.412;2023-12-14T03:19:16;0.73;;;0.73;;
16973;SDS011;8603;46.944;7.412;2023-12-14T03:21:42;0.80;;;0.80;;
16973;SDS011;8603;46.944;7.412;2023-12-14T03:24:13;0.83;;;0.80;;
16973;SDS011;8603;46.944;7.412;2023-12-14T03:26:46;1.33;;;0.60;;
16973;SDS011;8603;46.944;7.412;2023-12-14T03:29:11;0.60;;;0.60;;
16973;SDS011;8603;46.944;7.412;2023-12-14T03:31:37;0.50;;;0.50;;
16973;SDS011;8603;46.944;7.412;2023-12-14T03:34:04;0.60;;;0.60;;
16973;SDS011;8603;46.944;7.412;2023-12-14T03:36:30;0.63;;;0.63;;
16973;SDS011;8603;46.944;7.412;2023-12-14T03:38:56;0.60;;;0.60;;
16973;SDS011;8603;46.944;7.412;2023-12-14T03:41:21;0.60;;;0.60;;
16973;SDS011;8603;46.944;7.412;2023-12-14T03:43:47;0.60;;;0.60;;
16973;SDS011;8603;46.944;7.412;2023-12-14T03:46:13;0.60;;;0.60;;
16973;SDS011;8603;46.944;7.412;2023-12-14T03:48:38;0.60;;;0.60;;
16973;SDS011;8603;46.944;7.412;2023-12-14T03:51:04;0.57;;;0.57;;
16973;SDS011;8603;46.944;7.412;2023-12-14T03:53:30;1.03;;;0.57;;
16973;SDS011;8603;46.944;7.412;2023-12-14T03:55:59;0.70;;;0.70;;
16973;SDS011;8603;46.944;7.412;2023-12-14T03:58:25;0.73;;;0.60;;
16973;SDS011;8603;46.944;7.412;2023-12-14T04:00:51;0.53;;;0.50;;
16973;SDS011;8603;46.944;7.412;2023-12-14T04:03:17;0.40;;;0.40;;
16973;SDS011;8603;46.944;7.412;2023-12-14T04:05:42;0.70;;;0.70;;
16973;SDS011;8603;46.944;7.412;2023-12-14T04:08:09;0.43;;;0.43;;
16973;SDS011;8603;46.944;7.412;2023-12-14T04:10:35;0.70;;;0.70;;
16973;SDS011;8603;46.944;7.412;2023-12-14T04:13:01;0.63;;;0.50;;
16973;SDS011;8603;46.944;7.412;2023-12-14T04:15:26;1.47;;;0.80;;
16973;SDS011;8603;46.944;7.412;2023-12-14T04:17:52;0.60;;;0.60;;
16973;SDS011;8603;46.944;7.412;2023-12-14T04:20:18;0.80;;;0.80;;
16973;SDS011;8603;46.944;7.412;2023-12-14T04:22:44;0.53;;;0.53;;
16973;SDS011;8603;46.944;7.412;2023-12-14T04:25:10;0.50;;;0.50;;
16973;SDS011;8603;46.944;7.412;2023-12-14T04:27:35;0.40;;;0.40;;
16973;SDS011;8603;46.944;7.412;2023-12-14T04:30:01;0.60;;;0.60;;
16973;SDS011;8603;46.944;7.412;2023-12-14T04:32:27;0.50;;;0.50;;
16973;SDS011;8603;46.944;7.412;2023-12-14T04:34:52;0.50;;;0.40;;
16973;SDS011;8603;46.944;7.412;2023-12-14T04:37:18;1.53;;;0.63;;
16973;SDS011;8603;46.944;7.412;2023-12-14T04:39:43;0.50;;;0.50;;
16973;SDS011;8603;46.944;7.412;2023-12-14T04:42:09;0.50;;;0.50;;
16973;SDS011;8603;46.944;7.412;2023-12-14T04:44:34;0.50;;;0.50;;
16973;SDS011;8603;46.944;7.412;2023-12-14T04:47:00;0.50;;;0.50;;
16973;SDS011;8603;46.944;7.412;2023-12-14T04:49:26;0.40;;;0.40;;
16973;SDS011;8603;46.944;7.412;2023-12-14T04:51:51;0.60;;;0.60;;
16973;SDS011;8603;46.944;7.412;2023-12-14T04:54:17;0.50;;;0.50;;
16973;SDS011;8603;46.944;7.412;2023-12-14T04:56:45;0.50;;;0.50;;
16973;SDS011;8603;46.944;7.412;2023-12-14T04:59:11;0.60;;;0.60;;
16973;SDS011;8603;46.944;7.412;2023-12-14T05:01:36;0.60;;;0.60;;
16973;SDS011;8603;46.944;7.412;2023-12-14T05:04:02;0.37;;;0.37;;
16973;SDS011;8603;46.944;7.412;2023-12-14T05:06:27;0.50;;;0.50;;
16973;SDS011;8603;46.944;7.412;2023-12-14T05:08:54;0.40;;;0.40;;
16973;SDS011;8603;46.944;7.412;2023-12-14T05:11:21;0.60;;;0.60;;
16973;SDS011;8603;46.944;7.412;2023-12-14T05:13:47;0.37;;;0.37;;
16973;SDS011;8603;46.944;7.412;2023-12-14T05:16:13;1.93;;;0.50;;
16973;SDS011;8603;46.944;7.412;2023-12-14T05:18:39;0.50;;;0.50;;
16973;SDS011;8603;46.944;7.412;2023-12-14T05:21:05;0.70;;;0.70;;
16973;SDS011;8603;46.944;7.412;2023-12-14T05:23:31;0.60;;;0.60;;
16973;SDS011;8603;46.944;7.412;2023-12-14T05:25:56;0.90;;;0.80;;
16973;SDS011;8603;46.944;7.412;2023-12-14T05:28:22;0.70;;;0.70;;
16973;SDS011;8603;46.944;7.412;2023-12-14T05:30:47;0.60;;;0.60;;
16973;SDS011;8603;46.944;7.412;2023-12-14T05:33:13;0.70;;;0.70;;
16973;SDS011;8603;46.944;7.412;2023-12-14T05:35:39;0.70;;;0.70;;
16973;SDS011;8603;46.944;7.412;2023-12-14T05:38:04;1.17;;;0.80;;
16973;SDS011;8603;46.944;7.412;2023-12-14T05:40:30;0.90;;;0.90;;
16973;SDS011;8603;46.944;7.412;2023-12-14T05:42:56;1.00;;;0.90;;
16973;SDS011;8603;46.944;7.412;2023-12-14T05:45:22;0.90;;;0.90;;
16973;SDS011;8603;46.944;7.412;2023-12-14T05:47:47;1.30;;;0.80;;
16973;SDS011;8603;46.944;7.412;2023-12-14T05:50:13;1.10;;;1.00;;
16973;SDS011;8603;46.944;7.412;2023-12-14T05:52:39;0.97;;;0.90;;
16973;SDS011;8603;46.944;7.412;2023-12-14T05:55:07;1.40;;;1.30;;
16973;SDS011;8603;46.944;7.412;2023-12-14T05:57:35;2.40;;;1.20;;
16973;SDS011;8603;46.944;7.412;2023-12-14T06:00:01;1.47;;;1.37;;
16973;SDS011;8603;46.944;7.412;2023-12-14T06:02:29;1.03;;;1.03;;
16973;SDS011;8603;46.944;7.412;2023-12-14T06:04:55;1.30;;;1.20;;
16973;SDS011;8603;46.944;7.412;2023-12-14T06:07:22;1.50;;;1.40;;
16973;SDS011;8603;46.944;7.412;2023-12-14T06:09:48;1.20;;;1.10;;
16973;SDS011;8603;46.944;7.412;2023-12-14T06:12:14;1.77;;;1.30;;
16973;SDS011;8603;46.944;7.412;2023-12-14T06:14:39;1.30;;;1.20;;
16973;SDS011;8603;46.944;7.412;2023-12-14T06:17:05;1.57;;;1.30;;
16973;SDS011;8603;46.944;7.412;2023-12-14T06:19:31;1.03;;;1.03;;
16973;SDS011;8603;46.944;7.412;2023-12-14T06:21:57;1.60;;;0.90;;
16973;SDS011;8603;46.944;7.412;2023-12-14T06:24:22;1.00;;;1.00;;
16973;SDS011;8603;46.944;7.412;2023-12-14T06:26:48;1.33;;;1.23;;
16973;SDS011;8603;46.944;7.412;2023-12-14T06:29:14;1.10;;;1.00;;
16973;SDS011;8603;46.944;7.412;2023-12-14T06:31:39;1.33;;;1.10;;
16973;SDS011;8603;46.944;7.412;2023-12-14T06:40:41;1.00;;;1.00;;
16973;SDS011;8603;46.944;7.412;2023-12-14T06:43:39;1.00;;;1.00;;
16973;SDS011;8603;46.944;7.412;2023-12-14T06:46:10;1.30;;;1.10;;
16973;SDS011;8603;46.944;7.412;2023-12-14T06:48:52;2.20;;;1.27;;
16973;SDS011;8603;46.944;7.412;2023-12-14T06:51:27;1.00;;;1.00;;
16973;SDS011;8603;46.944;7.412;2023-12-14T06:54:04;1.30;;;1.20;;
16973;SDS011;8603;46.944;7.412;2023-12-14T06:56:30;1.20;;;1.10;;
16973;SDS011;8603;46.944;7.412;2023-12-14T06:59:04;1.33;;;1.23;;
16973;SDS011;8603;46.944;7.412;2023-12-14T07:01:29;2.00;;;1.10;;
16973;SDS011;8603;46.944;7.412;2023-12-14T07:04:07;1.40;;;1.30;;
16973;SDS011;8603;46.944;7.412;2023-12-14T07:06:38;1.73;;;1.20;;
16973;SDS011;8603;46.944;7.412;2023-12-14T07:09:07;1.40;;;1.30;;
16973;SDS011;8603;46.944;7.412;2023-12-14T07:11:38;1.57;;;1.30;;
16973;SDS011;8603;46.944;7.412;2023-12-14T07:17:49;1.67;;;1.40;;
16973;SDS011;8603;46.944;7.412;2023-12-14T07:20:26;1.50;;;1.40;;
16973;SDS011;8603;46.944;7.412;2023-12-14T07:23:24;1.47;;;1.37;;
16973;SDS011;8603;46.944;7.412;2023-12-14T07:26:01;1.43;;;1.23;;
16973;SDS011;8603;46.944;7.412;2023-12-14T07:28:29;1.70;;;1.60;;
16973;SDS011;8603;46.944;7.412;2023-12-14T08:07:44;3.50;;;2.00;;
16973;SDS011;8603;46.944;7.412;2023-12-14T08:10:14;1.80;;;1.70;;
16973;SDS011;8603;46.944;7.412;2023-12-14T08:12:46;2.40;;;2.10;;
16973;SDS011;8603;46.944;7.412;2023-12-14T08:15:16;2.47;;;1.80;;
16973;SDS011;8603;46.944;7.412;2023-12-14T08:18:20;1.33;;;1.27;;
16973;SDS011;8603;46.944;7.412;2023-12-14T08:20:48;2.43;;;1.70;;
16973;SDS011;8603;46.944;7.412;2023-12-14T08:23:17;3.87;;;2.80;;
16973;SDS011;8603;46.944;7.412;2023-12-14T08:25:58;5.20;;;4.50;;
16973;SDS011;8603;46.944;7.412;2023-12-14T08:28:40;4.17;;;3.00;;
16973;SDS011;8603;46.944;7.412;2023-12-14T08:31:09;9.30;;;6.30;;
16973;SDS011;8603;46.944;7.412;2023-12-14T08:33:43;9.17;;;5.77;;
16973;SDS011;8603;46.944;7.412;2023-12-14T08:36:20;7.23;;;5.23;;
16973;SDS011;8603;46.944;7.412;2023-12-14T08:38:48;6.63;;;4.57;;
16973;SDS011;8603;46.944;7.412;2023-12-14T08:41:14;4.53;;;3.90;;
16973;SDS011;8603;46.944;7.412;2023-12-14T08:43:40;5.63;;;4.47;;
16973;SDS011;8603;46.944;7.412;2023-12-14T08:46:08;2.60;;;2.40;;
16973;SDS011;8603;46.944;7.412;2023-12-14T08:48:57;1.97;;;1.80;;
16973;SDS011;8603;46.944;7.412;2023-12-14T08:51:22;2.20;;;2.00;;
16973;SDS011;8603;46.944;7.412;2023-12-14T08:53:50;2.33;;;1.83;;
16973;SDS011;8603;46.944;7.412;2023-12-14T08:56:26;2.20;;;2.00;;
16973;SDS011;8603;46.944;7.412;2023-12-14T08:58:57;3.20;;;2.90;;
16973;SDS011;8603;46.944;7.412;2023-12-14T09:01:28;5.03;;;3.43;;
16973;SDS011;8603;46.944;7.412;2023-12-14T09:03:54;7.30;;;4.00;;
16973;SDS011;8603;46.944;7.412;2023-12-14T09:06:20;4.17;;;3.10;;
16973;SDS011;8603;46.944;7.412;2023-12-14T09:08:51;4.93;;;3.23;;
16973;SDS011;8603;46.944;7.412;2023-12-14T09:11:19;2.10;;;1.90;;
16973;SDS011;8603;46.944;7.412;2023-12-14T09:13:44;3.00;;;2.00;;
16973;SDS011;8603;46.944;7.412;2023-12-14T09:16:10;2.77;;;2.07;;
16973;SDS011;8603;46.944;7.412;2023-12-14T09:18:36;2.47;;;2.27;;
16973;SDS011;8603;46.944;7.412;2023-12-14T09:21:04;2.10;;;1.90;;
16973;SDS011;8603;46.944;7.412;2023-12-14T09:23:30;3.60;;;2.30;;
16973;SDS011;8603;46.944;7.412;2023-12-14T09:25:59;3.20;;;2.60;;
16973;SDS011;8603;46.944;7.412;2023-12-14T09:28:25;2.33;;;2.00;;
16973;SDS011;8603;46.944;7.412;2023-12-14T09:30:59;2.57;;;2.20;;
16973;SDS011;8603;46.944;7.412;2023-12-14T09:37:06;4.33;;;3.30;;
16973;SDS011;8603;46.944;7.412;2023-12-14T09:40:12;3.17;;;2.67;;
16973;SDS011;8603;46.944;7.412;2023-12-14T09:48:53;2.67;;;2.47;;
16973;SDS011;8603;46.944;7.412;2023-12-14T09:51:30;2.93;;;2.30;;
16973;SDS011;8603;46.944;7.412;2023-12-14T09:54:13;4.60;;;3.43;;
16973;SDS011;8603;46.944;7.412;2023-12-14T09:57:02;3.63;;;3.33;;
16973;SDS011;8603;46.944;7.412;2023-12-14T09:59:35;3.40;;;2.60;;
16973;SDS011;8603;46.944;7.412;2023-12-14T10:02:14;6.40;;;5.67;;
16973;SDS011;8603;46.944;7.412;2023-12-14T10:04:50;2.73;;;2.47;;
16973;SDS011;8603;46.944;7.412;2023-12-14T10:07:55;4.50;;;2.50;;
16973;SDS011;8603;46.944;7.412;2023-12-14T10:10:28;3.70;;;2.10;;
16973;SDS011;8603;46.944;7.412;2023-12-14T10:12:59;4.33;;;2.20;;
16973;SDS011;8603;46.944;7.412;2023-12-14T10:15:36;2.30;;;2.07;;
16973;SDS011;8603;46.944;7.412;2023-12-14T10:18:41;2.33;;;2.03;;
16973;SDS011;8603;46.944;7.412;2023-12-14T10:21:27;5.80;;;2.70;;
16973;SDS011;8603;46.944;7.412;2023-12-14T10:24:00;2.37;;;2.17;;
16973;SDS011;8603;46.944;7.412;2023-12-14T10:26:46;4.07;;;2.70;;
16973;SDS011;8603;46.944;7.412;2023-12-14T10:29:19;4.50;;;2.33;;
16973;SDS011;8603;46.944;7.412;2023-12-14T10:32:03;2.90;;;2.47;;
16973;SDS011;8603;46.944;7.412;2023-12-14T10:34:36;2.80;;;2.50;;
16973;SDS011;8603;46.944;7.412;2023-12-14T10:37:04;2.83;;;2.53;;
16973;SDS011;8603;46.944;7.412;2023-12-14T10:39:31;2.67;;;2.30;;
16973;SDS011;8603;46.944;7.412;2023-12-14T10:42:08;2.33;;;2.13;;
16973;SDS011;8603;46.944;7.412;2023-12-14T10:44:56;2.73;;;2.43;;
16973;SDS011;8603;46.944;7.412;2023-12-14T10:47:24;5.83;;;2.03;;
16973;SDS011;8603;46.944;7.412;2023-12-14T10:49:58;4.10;;;2.67;;
16973;SDS011;8603;46.944;7.412;2023-12-14T10:52:28;4.70;;;2.10;;
16973;SDS011;8603;46.944;7.412;2023-12-14T10:55:02;7.27;;;2.40;;
16973;SDS011;8603;46.944;7.412;2023-12-14T10:57:53;2.53;;;2.33;;
16973;SDS011;8603;46.944;7.412;2023-12-14T11:00:23;2.90;;;2.40;;
16973;SDS011;8603;46.944;7.412;2023-12-14T11:02:56;2.97;;;2.70;;
16973;SDS011;8603;46.944;7.412;2023-12-14T11:05:26;2.80;;;2.60;;
16973;SDS011;8603;46.944;7.412;2023-12-14T11:08:01;2.63;;;2.37;;
16973;SDS011;8603;46.944;7.412;2023-12-14T11:10:44;2.97;;;2.27;;
16973;SDS011;8603;46.944;7.412;2023-12-14T11:13:20;2.10;;;1.90;;
16973;SDS011;8603;46.944;7.412;2023-12-14T11:15:56;2.00;;;1.80;;
16973;SDS011;8603;46.944;7.412;2023-12-14T11:18:22;1.80;;;1.70;;
16973;SDS011;8603;46.944;7.412;2023-12-14T11:20:58;1.60;;;1.50;;
16973;SDS011;8603;46.944;7.412;2023-12-14T11:25:59;2.10;;;1.70;;
16973;SDS011;8603;46.944;7.412;2023-12-14T11:28:28;1.80;;;1.60;;
16973;SDS011;8603;46.944;7.412;2023-12-14T11:30:59;2.10;;;1.90;;
16973;SDS011;8603;46.944;7.412;2023-12-14T11:33:32;2.37;;;1.90;;
16973;SDS011;8603;46.944;7.412;2023-12-14T11:36:01;3.37;;;1.80;;
16973;SDS011;8603;46.944;7.412;2023-12-14T11:38:31;3.27;;;1.87;;
16973;SDS011;8603;46.944;7.412;2023-12-14T11:41:00;2.33;;;2.00;;
16973;SDS011;8603;46.944;7.412;2023-12-14T11:43:38;1.77;;;1.60;;
16973;SDS011;8603;46.944;7.412;2023-12-14T11:46:08;2.50;;;1.70;;
16973;SDS011;8603;46.944;7.412;2023-12-14T11:48:35;2.43;;;2.20;;
16973;SDS011;8603;46.944;7.412;2023-12-14T11:51:01;1.80;;;1.70;;
16973;SDS011;8603;46.944;7.412;2023-12-14T11:53:30;1.90;;;1.60;;
16973;SDS011;8603;46.944;7.412;2023-12-14T11:55:56;1.97;;;1.80;;
16973;SDS011;8603;46.944;7.412;2023-12-14T11:58:27;2.10;;;1.90;;
16973;SDS011;8603;46.944;7.412;2023-12-14T12:00:53;1.60;;;1.50;;
16973;SDS011;8603;46.944;7.412;2023-12-14T12:03:21;1.63;;;1.40;;
16973;SDS011;8603;46.944;7.412;2023-12-14T12:05:48;3.10;;;1.77;;
16973;SDS011;8603;46.944;7.412;2023-12-14T12:08:19;2.00;;;1.80;;
16973;SDS011;8603;46.944;7.412;2023-12-14T12:10:54;1.87;;;1.70;;
16973;SDS011;8603;46.944;7.412;2023-12-14T12:13:22;2.80;;;1.60;;
16973;SDS011;8603;46.944;7.412;2023-12-14T12:15:47;1.93;;;1.83;;
16973;SDS011;8603;46.944;7.412;2023-12-14T12:18:19;1.67;;;1.57;;
16973;SDS011;8603;46.944;7.412;2023-12-14T12:20:47;3.07;;;1.43;;
16973;SDS011;8603;46.944;7.412;2023-12-14T12:23:13;1.70;;;1.60;;
16973;SDS011;8603;46.944;7.412;2023-12-14T12:25:41;1.70;;;1.60;;
16973;SDS011;8603;46.944;7.412;2023-12-14T12:28:07;1.70;;;1.60;;
16973;SDS011;8603;46.944;7.412;2023-12-14T12:30:33;1.87;;;1.50;;
16973;SDS011;8603;46.944;7.412;2023-12-14T12:32:59;2.33;;;1.60;;
16973;SDS011;8603;46.944;7.412;2023-12-14T12:35:24;1.80;;;1.47;;
16973;SDS011;8603;46.944;7.412;2023-12-14T12:37:55;1.60;;;1.30;;
16973;SDS011;8603;46.944;7.412;2023-12-14T12:40:21;1.30;;;1.20;;
16973;SDS011;8603;46.944;7.412;2023-12-14T12:42:48;1.30;;;1.20;;
16973;SDS011;8603;46.944;7.412;2023-12-14T12:45:16;1.27;;;1.20;;
16973;SDS011;8603;46.944;7.412;2023-12-14T12:47:50;1.33;;;1.23;;
16973;SDS011;8603;46.944;7.412;2023-12-14T12:50:16;1.00;;;1.00;;
16973;SDS011;8603;46.944;7.412;2023-12-14T12:52:46;1.33;;;1.23;;
16973;SDS011;8603;46.944;7.412;2023-12-14T12:55:16;1.00;;;1.00;;
16973;SDS011;8603;46.944;7.412;2023-12-14T12:57:41;1.60;;;1.10;;
16973;SDS011;8603;46.944;7.412;2023-12-14T13:00:07;1.37;;;1.27;;
16973;SDS011;8603;46.944;7.412;2023-12-14T13:02:44;2.17;;;0.90;;
16973;SDS011;8603;46.944;7.412;2023-12-14T13:05:10;0.90;;;0.90;;
16973;SDS011;8603;46.944;7.412;2023-12-14T13:07:38;1.10;;;1.00;;
16973;SDS011;8603;46.944;7.412;2023-12-14T13:10:04;0.90;;;0.90;;
16973;SDS011;8603;46.944;7.412;2023-12-14T13:12:31;0.90;;;0.90;;
16973;SDS011;8603;46.944;7.412;2023-12-14T13:14:57;1.20;;;1.10;;
16973;SDS011;8603;46.944;7.412;2023-12-14T13:17:23;1.80;;;1.10;;
16973;SDS011;8603;46.944;7.412;2023-12-14T13:19:49;1.43;;;0.97;;
16973;SDS011;8603;46.944;7.412;2023-12-14T13:22:15;2.03;;;0.90;;
16973;SDS011;8603;46.944;7.412;2023-12-14T13:24:44;0.93;;;0.93;;
16973;SDS011;8603;46.944;7.412;2023-12-14T13:27:13;1.23;;;0.80;;
16973;SDS011;8603;46.944;7.412;2023-12-14T13:29:41;0.83;;;0.83;;
16973;SDS011;8603;46.944;7.412;2023-12-14T13:32:10;1.00;;;1.00;;
16973;SDS011;8603;46.944;7.412;2023-12-14T13:34:36;0.90;;;0.90;;
16973;SDS011;8603;46.944;7.412;2023-12-14T13:37:05;1.00;;;1.00;;
16973;SDS011;8603;46.944;7.412;2023-12-14T13:39:33;1.03;;;1.00;;
16973;SDS011;8603;46.944;7.412;2023-12-14T13:42:08;1.00;;;0.90;;
16973;SDS011;8603;46.944;7.412;2023-12-14T13:44:37;1.47;;;1.10;;
16973;SDS011;8603;46.944;7.412;2023-12-14T13:47:10;1.13;;;1.03;;
16973;SDS011;8603;46.944;7.412;2023-12-14T13:49:36;0.80;;;0.80;;
16973;SDS011;8603;46.944;7.412;2023-12-14T13:52:03;2.03;;;1.30;;
16973;SDS011;8603;46.944;7.412;2023-12-14T13:54:29;1.63;;;1.10;;
16973;SDS011;8603;46.944;7.412;2023-12-14T13:56:55;1.43;;;1.33;;
16973;SDS011;8603;46.944;7.412;2023-12-14T13:59:20;0.97;;;0.97;;
16973;SDS011;8603;46.944;7.412;2023-12-14T14:01:46;1.40;;;1.10;;
16973;SDS011;8603;46.944;7.412;2023-12-14T14:04:15;1.57;;;1.43;;
16973;SDS011;8603;46.944;7.412;2023-12-14T14:06:42;1.20;;;1.10;;
16973;SDS011;8603;46.944;7.412;2023-12-14T14:09:07;2.50;;;1.40;;
16973;SDS011;8603;46.944;7.412;2023-12-14T14:11:33;2.87;;;1.30;;
16973;SDS011;8603;46.944;7.412;2023-12-14T14:14:00;1.23;;;1.17;;
16973;SDS011;8603;46.944;7.412;2023-12-14T14:16:25;2.10;;;1.43;;
16973;SDS011;8603;46.944;7.412;2023-12-14T14:18:51;2.67;;;1.53;;
16973;SDS011;8603;46.944;7.412;2023-12-14T14:21:17;3.47;;;1.47;;
16973;SDS011;8603;46.944;7.412;2023-12-14T14:23:43;1.97;;;1.40;;
16973;SDS011;8603;46.944;7.412;2023-12-14T14:26:09;1.50;;;1.30;;
16973;SDS011;8603;46.944;7.412;2023-12-14T14:28:35;1.40;;;1.30;;
16973;SDS011;8603;46.944;7.412;2023-12-14T14:31:00;2.73;;;1.40;;
16973;SDS011;8603;46.944;7.412;2023-12-14T14:33:26;2.07;;;1.50;;
16973;SDS011;8603;46.944;7.412;2023-12-14T14:35:51;1.60;;;1.33;;
16973;SDS011;8603;46.944;7.412;2023-12-14T14:38:18;1.63;;;1.37;;
16973;SDS011;8603;46.944;7.412;2023-12-14T14:40:44;1.97;;;1.20;;
16973;SDS011;8603;46.944;7.412;2023-12-14T14:43:10;1.70;;;1.30;;
16973;SDS011;8603;46.944;7.412;2023-12-14T14:45:36;2.53;;;1.40;;
16973;SDS011;8603;46.944;7.412;2023-12-14T14:48:03;1.53;;;1.37;;
16973;SDS011;8603;46.944;7.412;2023-12-14T14:50:33;2.97;;;1.40;;
16973;SDS011;8603;46.944;7.412;2023-12-14T14:52:59;2.30;;;1.50;;
16973;SDS011;8603;46.944;7.412;2023-12-14T14:55:25;1.30;;;1.20;;
16973;SDS011;8603;46.944;7.412;2023-12-14T14:57:51;1.20;;;1.10;;
16973;SDS011;8603;46.944;7.412;2023-12-14T15:00:17;1.60;;;1.50;;
16973;SDS011;8603;46.944;7.412;2023-12-14T15:02:43;1.67;;;1.50;;
16973;SDS011;8603;46.944;7.412;2023-12-14T15:05:09;1.50;;;1.40;;
16973;SDS011;8603;46.944;7.412;2023-12-14T15:07:35;1.43;;;1.20;;
16973;SDS011;8603;46.944;7.412;2023-12-14T15:10:01;2.40;;;1.50;;
16973;SDS011;8603;46.944;7.412;2023-12-14T15:12:27;3.00;;;1.47;;
16973;SDS011;8603;46.944;7.412;2023-12-14T15:14:53;1.50;;;1.30;;
16973;SDS011;8603;46.944;7.412;2023-12-14T15:17:20;2.07;;;1.30;;
16973;SDS011;8603;46.944;7.412;2023-12-14T15:19:47;2.47;;;1.70;;
16973;SDS011;8603;46.944;7.412;2023-12-14T15:22:14;3.47;;;1.30;;
16973;SDS011;8603;46.944;7.412;2023-12-14T15:24:40;2.57;;;1.77;;
16973;SDS011;8603;46.944;7.412;2023-12-14T15:27:05;2.07;;;1.50;;
16973;SDS011;8603;46.944;7.412;2023-12-14T15:29:31;3.43;;;1.30;;
16973;SDS011;8603;46.944;7.412;2023-12-14T15:31:57;1.73;;;1.37;;
16973;SDS011;8603;46.944;7.412;2023-12-14T15:34:22;1.53;;;1.43;;
16973;SDS011;8603;46.944;7.412;2023-12-14T15:36:48;1.27;;;1.10;;
16973;SDS011;8603;46.944;7.412;2023-12-14T15:39:13;2.00;;;1.40;;
16973;SDS011;8603;46.944;7.412;2023-12-14T15:41:39;3.10;;;1.10;;
16973;SDS011;8603;46.944;7.412;2023-12-14T15:44:05;1.50;;;1.27;;
16973;SDS011;8603;46.944;7.412;2023-12-14T15:46:30;1.40;;;1.20;;
16973;SDS011;8603;46.944;7.412;2023-12-14T15:48:56;2.10;;;1.33;;
16973;SDS011;8603;46.944;7.412;2023-12-14T15:51:21;3.37;;;1.23;;
16973;SDS011;8603;46.944;7.412;2023-12-14T15:53:47;2.57;;;1.10;;
16973;SDS011;8603;46.944;7.412;2023-12-14T15:56:13;1.83;;;1.20;;
16973;SDS011;8603;46.944;7.412;2023-12-14T15:58:39;1.93;;;1.27;;
16973;SDS011;8603;46.944;7.412;2023-12-14T16:01:05;1.40;;;1.30;;
16973;SDS011;8603;46.944;7.412;2023-12-14T16:03:30;1.30;;;1.20;;
16973;SDS011;8603;46.944;7.412;2023-12-14T16:05:58;2.43;;;1.10;;
16973;SDS011;8603;46.944;7.412;2023-12-14T16:08:24;1.63;;;1.40;;